Aberdeen, SD

5:34 AM CDT on May 24, 2015 (GMT -0500)
Simmons | | Change Station
CLOSE
Current Station
Personal Weather Station
Location: Aberdeen, SD
Elevation: 1312 ft
Nearby Weather Stations
Active Advisory: Flood Warning

Elev 1312 ft 45.45 °N, 98.49 °W | Updated 9 minutes ago

Overcast
Overcast
55.8 °F
Feels Like 55.8 °F
N
3.7
Wind Variable Wind from East

Today
High -- | Low -- °F
--% Chance of Precip.
Yesterday
High -- | Low -- °F
Precip. -- in
5:54 AM 9:07 PM
Waxing Crescent, 38% visible
Pressure 30.03 in
Visibility 10.0 miles
Clouds Few 5000 ft
Overcast 7000 ft
Dew Point 51 °F
Humidity 84%
Rainfall 0.00 in
Snow Depth Not available.
UV 0 out of 12
Pollen 8.60 out of 12
Air Quality Not available.
Flu Activity Sporadic
METAR KABR 240953Z AUTO 03006KT 10SM FEW050 OVC070 13/09 A3003

More Conditions Fewer Conditions

Pressure 30.03 in
Visibility 10.0 miles
Clouds Few 5000 ft
Overcast 7000 ft
Dew Point 51 °F
Humidity 84%
Rainfall 0.00 in
Snow Depth Not available.
UV 0 out of 12
Pollen 8.60 out of 12
Air Quality Not available.
Flu Activity Sporadic
METAR KABR 240953Z AUTO 03006KT 10SM FEW050 OVC070 13/09 A3003

More Conditions Fewer Conditions

10-Day Weather Forecast

Almanac

Astronomy

May. 24, 2015 Rise Set
Actual Time
Civil Twilight
Nautical Twilight
Astronomical Twilight
Moon
Length of Visible Light
Length of Day
Tomorrow will be .
, % of the Moon is Illuminated

Today's Extremes

State Highs State Lows

Community

WunderPhotos

Upload Photos

1,823,710 photos uploaded!

WunderBlogs® & News

Nearby

Air Quality

  Air Quality AQ Index Pollutant
Not available.

Snow Depth

Station Depth Elevation

Earthquake Activity

City Distance Mag. Time & Date
Minimum magnitude displayed is 2.5.

Coastal Water Temperatures

Place Temperature

Stations

Nearby Weather Stations

Station Location Temp. Windchill Dew Point Humidity Wind Precip. Elev Updated Type
                   
Flood Warning
Statement as of 10:24 AM CDT on May 23, 2015

The Flood Warning continues for
the James River near Stratford
* from early Saturday morning until further notice...
* at 09am Saturday the stage was 12.5 feet...
* minor flooding is forecast...
* flood stage is 14.0 feet...
* at 14.0 feet... significant amounts of agricultural lands begin
flooding.




Lat... Lon 4552 9830 4515 9845 4515 9835 4552 9818






1024 am CDT Sat may 23 2015

The Flood Warning continues for
the James River near Columbia
* until early Friday morning...
* at 09am Saturday the stage was 14.3 feet...
* minor flooding is occurring and minor flooding is forecast...
* flood stage is 13.0 feet...
* at 15.0 feet... significant amounts of agricultural lands are
flooded.




Lat... Lon 4594 9820 4563 9837 4552 9830 4552 9818
4563 9827 4594 9813